sensor_id;sensor_type;location;lat;lon;timestamp;P1;durP1;ratioP1;P2;durP2;ratioP2
51780;SDS011;37844;57.126;24.288;2022-08-19T00:00:23;30.70;;;8.73;;
51780;SDS011;37844;57.126;24.288;2022-08-19T00:02:48;18.38;;;8.73;;
51780;SDS011;37844;57.126;24.288;2022-08-19T00:05:14;18.77;;;8.98;;
51780;SDS011;37844;57.126;24.288;2022-08-19T00:07:40;19.30;;;8.27;;
51780;SDS011;37844;57.126;24.288;2022-08-19T00:10:06;25.10;;;8.80;;
51780;SDS011;37844;57.126;24.288;2022-08-19T00:12:32;17.85;;;8.43;;
51780;SDS011;37844;57.126;24.288;2022-08-19T00:14:57;26.02;;;8.43;;
51780;SDS011;37844;57.126;24.288;2022-08-19T00:17:23;20.73;;;8.15;;
51780;SDS011;37844;57.126;24.288;2022-08-19T00:19:48;28.00;;;9.05;;
51780;SDS011;37844;57.126;24.288;2022-08-19T00:22:13;27.77;;;9.10;;
51780;SDS011;37844;57.126;24.288;2022-08-19T00:24:39;24.00;;;8.95;;
51780;SDS011;37844;57.126;24.288;2022-08-19T00:27:06;26.50;;;9.18;;
51780;SDS011;37844;57.126;24.288;2022-08-19T00:29:31;24.33;;;9.93;;
51780;SDS011;37844;57.126;24.288;2022-08-19T00:31:56;18.30;;;8.40;;
51780;SDS011;37844;57.126;24.288;2022-08-19T00:34:23;21.42;;;8.95;;
51780;SDS011;37844;57.126;24.288;2022-08-19T00:36:49;24.83;;;8.82;;
51780;SDS011;37844;57.126;24.288;2022-08-19T00:39:16;23.20;;;9.15;;
51780;SDS011;37844;57.126;24.288;2022-08-19T00:41:42;15.68;;;8.73;;
51780;SDS011;37844;57.126;24.288;2022-08-19T00:44:09;24.25;;;8.65;;
51780;SDS011;37844;57.126;24.288;2022-08-19T00:46:36;19.20;;;9.18;;
51780;SDS011;37844;57.126;24.288;2022-08-19T00:49:05;18.83;;;8.48;;
51780;SDS011;37844;57.126;24.288;2022-08-19T00:51:31;24.67;;;8.90;;
51780;SDS011;37844;57.126;24.288;2022-08-19T00:53:57;24.42;;;8.40;;
51780;SDS011;37844;57.126;24.288;2022-08-19T00:56:23;23.70;;;9.70;;
51780;SDS011;37844;57.126;24.288;2022-08-19T00:58:51;28.38;;;8.90;;
51780;SDS011;37844;57.126;24.288;2022-08-19T01:01:16;15.18;;;7.32;;
51780;SDS011;37844;57.126;24.288;2022-08-19T01:03:42;24.00;;;8.13;;
51780;SDS011;37844;57.126;24.288;2022-08-19T01:06:07;18.60;;;8.15;;
51780;SDS011;37844;57.126;24.288;2022-08-19T01:08:33;15.27;;;7.40;;
51780;SDS011;37844;57.126;24.288;2022-08-19T01:10:58;16.35;;;7.47;;
51780;SDS011;37844;57.126;24.288;2022-08-19T01:13:25;13.32;;;8.07;;
51780;SDS011;37844;57.126;24.288;2022-08-19T01:15:53;21.83;;;8.20;;
51780;SDS011;37844;57.126;24.288;2022-08-19T01:18:19;19.98;;;7.45;;
51780;SDS011;37844;57.126;24.288;2022-08-19T01:20:45;24.25;;;8.20;;
51780;SDS011;37844;57.126;24.288;2022-08-19T01:23:12;17.48;;;8.95;;
51780;SDS011;37844;57.126;24.288;2022-08-19T01:28:05;21.13;;;7.35;;
51780;SDS011;37844;57.126;24.288;2022-08-19T01:30:32;22.33;;;7.82;;
51780;SDS011;37844;57.126;24.288;2022-08-19T01:32:58;24.23;;;7.85;;
51780;SDS011;37844;57.126;24.288;2022-08-19T01:35:26;26.38;;;8.23;;
51780;SDS011;37844;57.126;24.288;2022-08-19T01:37:59;17.92;;;7.72;;
51780;SDS011;37844;57.126;24.288;2022-08-19T01:40:27;25.80;;;9.00;;
51780;SDS011;37844;57.126;24.288;2022-08-19T01:42:54;19.55;;;9.27;;
51780;SDS011;37844;57.126;24.288;2022-08-19T01:45:20;23.83;;;8.18;;
51780;SDS011;37844;57.126;24.288;2022-08-19T01:47:46;23.65;;;9.73;;
51780;SDS011;37844;57.126;24.288;2022-08-19T01:50:12;19.90;;;8.70;;
51780;SDS011;37844;57.126;24.288;2022-08-19T01:52:41;15.57;;;7.72;;
51780;SDS011;37844;57.126;24.288;2022-08-19T01:55:08;14.85;;;8.25;;
51780;SDS011;37844;57.126;24.288;2022-08-19T01:57:34;24.80;;;8.30;;
51780;SDS011;37844;57.126;24.288;2022-08-19T01:59:59;16.38;;;7.57;;
51780;SDS011;37844;57.126;24.288;2022-08-19T02:02:25;16.98;;;8.73;;
51780;SDS011;37844;57.126;24.288;2022-08-19T02:04:50;35.97;;;9.52;;
51780;SDS011;37844;57.126;24.288;2022-08-19T02:07:18;31.90;;;8.15;;
51780;SDS011;37844;57.126;24.288;2022-08-19T02:09:43;14.18;;;7.80;;
51780;SDS011;37844;57.126;24.288;2022-08-19T02:12:09;17.90;;;8.02;;
51780;SDS011;37844;57.126;24.288;2022-08-19T02:14:35;15.60;;;8.10;;
51780;SDS011;37844;57.126;24.288;2022-08-19T02:17:01;15.10;;;7.63;;
51780;SDS011;37844;57.126;24.288;2022-08-19T02:19:26;16.75;;;7.20;;
51780;SDS011;37844;57.126;24.288;2022-08-19T02:21:52;22.48;;;8.18;;
51780;SDS011;37844;57.126;24.288;2022-08-19T02:24:17;22.92;;;9.50;;
51780;SDS011;37844;57.126;24.288;2022-08-19T02:26:42;35.97;;;9.50;;
51780;SDS011;37844;57.126;24.288;2022-08-19T02:29:08;13.38;;;7.45;;
51780;SDS011;37844;57.126;24.288;2022-08-19T02:31:33;15.27;;;7.25;;
51780;SDS011;37844;57.126;24.288;2022-08-19T02:34:05;17.42;;;7.75;;
51780;SDS011;37844;57.126;24.288;2022-08-19T02:36:37;21.92;;;9.23;;
51780;SDS011;37844;57.126;24.288;2022-08-19T02:39:02;16.58;;;8.50;;
51780;SDS011;37844;57.126;24.288;2022-08-19T02:41:29;16.90;;;8.82;;
51780;SDS011;37844;57.126;24.288;2022-08-19T02:43:56;15.45;;;8.85;;
51780;SDS011;37844;57.126;24.288;2022-08-19T02:46:24;25.25;;;9.90;;
51780;SDS011;37844;57.126;24.288;2022-08-19T02:48:53;23.05;;;9.00;;
51780;SDS011;37844;57.126;24.288;2022-08-19T02:51:20;19.25;;;9.48;;
51780;SDS011;37844;57.126;24.288;2022-08-19T02:53:46;12.02;;;7.20;;
51780;SDS011;37844;57.126;24.288;2022-08-19T02:56:11;28.23;;;8.25;;
51780;SDS011;37844;57.126;24.288;2022-08-19T02:58:36;25.45;;;8.85;;
51780;SDS011;37844;57.126;24.288;2022-08-19T03:01:02;28.90;;;9.15;;
51780;SDS011;37844;57.126;24.288;2022-08-19T03:03:27;17.75;;;8.88;;
51780;SDS011;37844;57.126;24.288;2022-08-19T03:06:02;16.02;;;8.70;;
51780;SDS011;37844;57.126;24.288;2022-08-19T03:08:28;21.00;;;11.05;;
51780;SDS011;37844;57.126;24.288;2022-08-19T03:10:53;17.23;;;8.40;;
51780;SDS011;37844;57.126;24.288;2022-08-19T03:13:18;17.60;;;8.70;;
51780;SDS011;37844;57.126;24.288;2022-08-19T03:15:45;15.82;;;8.50;;
51780;SDS011;37844;57.126;24.288;2022-08-19T03:18:10;26.27;;;8.82;;
51780;SDS011;37844;57.126;24.288;2022-08-19T03:20:46;20.40;;;7.72;;
51780;SDS011;37844;57.126;24.288;2022-08-19T03:23:12;21.50;;;8.70;;
51780;SDS011;37844;57.126;24.288;2022-08-19T03:25:38;24.15;;;9.32;;
51780;SDS011;37844;57.126;24.288;2022-08-19T03:28:05;14.18;;;8.02;;
51780;SDS011;37844;57.126;24.288;2022-08-19T03:30:32;12.90;;;7.65;;
51780;SDS011;37844;57.126;24.288;2022-08-19T03:32:57;17.33;;;7.82;;
51780;SDS011;37844;57.126;24.288;2022-08-19T03:35:22;14.50;;;8.20;;
51780;SDS011;37844;57.126;24.288;2022-08-19T03:37:48;14.27;;;7.40;;
51780;SDS011;37844;57.126;24.288;2022-08-19T03:40:13;15.02;;;8.80;;
51780;SDS011;37844;57.126;24.288;2022-08-19T03:42:38;28.77;;;8.43;;
51780;SDS011;37844;57.126;24.288;2022-08-19T03:45:07;16.85;;;8.50;;
51780;SDS011;37844;57.126;24.288;2022-08-19T03:47:33;18.40;;;7.40;;
51780;SDS011;37844;57.126;24.288;2022-08-19T03:49:58;25.38;;;9.70;;
51780;SDS011;37844;57.126;24.288;2022-08-19T03:52:23;35.15;;;8.38;;
51780;SDS011;37844;57.126;24.288;2022-08-19T03:54:48;24.50;;;8.63;;
51780;SDS011;37844;57.126;24.288;2022-08-19T03:57:14;17.25;;;8.23;;
51780;SDS011;37844;57.126;24.288;2022-08-19T03:59:39;17.25;;;8.25;;
51780;SDS011;37844;57.126;24.288;2022-08-19T04:02:09;19.40;;;8.80;;
51780;SDS011;37844;57.126;24.288;2022-08-19T04:04:36;19.95;;;7.75;;
51780;SDS011;37844;57.126;24.288;2022-08-19T04:07:02;19.45;;;8.90;;
51780;SDS011;37844;57.126;24.288;2022-08-19T04:09:27;19.63;;;7.75;;
51780;SDS011;37844;57.126;24.288;2022-08-19T04:11:53;22.40;;;8.02;;
51780;SDS011;37844;57.126;24.288;2022-08-19T04:14:23;22.35;;;7.82;;
51780;SDS011;37844;57.126;24.288;2022-08-19T04:16:49;18.58;;;8.63;;
51780;SDS011;37844;57.126;24.288;2022-08-19T04:19:15;12.15;;;8.20;;
51780;SDS011;37844;57.126;24.288;2022-08-19T04:21:43;19.60;;;6.43;;
51780;SDS011;37844;57.126;24.288;2022-08-19T04:24:09;18.42;;;7.25;;
51780;SDS011;37844;57.126;24.288;2022-08-19T04:26:35;14.90;;;7.18;;
51780;SDS011;37844;57.126;24.288;2022-08-19T04:29:01;25.30;;;7.07;;
51780;SDS011;37844;57.126;24.288;2022-08-19T04:31:28;24.52;;;8.55;;
51780;SDS011;37844;57.126;24.288;2022-08-19T04:33:54;24.35;;;7.55;;
51780;SDS011;37844;57.126;24.288;2022-08-19T04:36:22;17.75;;;7.25;;
51780;SDS011;37844;57.126;24.288;2022-08-19T04:38:48;19.70;;;7.57;;
51780;SDS011;37844;57.126;24.288;2022-08-19T04:41:14;30.75;;;7.80;;
51780;SDS011;37844;57.126;24.288;2022-08-19T04:43:57;23.20;;;7.63;;
51780;SDS011;37844;57.126;24.288;2022-08-19T04:46:23;18.33;;;6.68;;
51780;SDS011;37844;57.126;24.288;2022-08-19T04:48:48;16.40;;;7.05;;
51780;SDS011;37844;57.126;24.288;2022-08-19T04:51:14;16.70;;;8.48;;
51780;SDS011;37844;57.126;24.288;2022-08-19T04:53:40;13.65;;;7.10;;
51780;SDS011;37844;57.126;24.288;2022-08-19T04:56:09;16.42;;;6.90;;
51780;SDS011;37844;57.126;24.288;2022-08-19T04:58:34;13.25;;;7.20;;
51780;SDS011;37844;57.126;24.288;2022-08-19T05:01:01;16.52;;;7.53;;
51780;SDS011;37844;57.126;24.288;2022-08-19T05:03:26;21.45;;;7.28;;
51780;SDS011;37844;57.126;24.288;2022-08-19T05:05:51;18.63;;;7.22;;
51780;SDS011;37844;57.126;24.288;2022-08-19T05:08:17;19.23;;;7.78;;
51780;SDS011;37844;57.126;24.288;2022-08-19T05:10:51;24.23;;;7.65;;
51780;SDS011;37844;57.126;24.288;2022-08-19T05:15:41;12.57;;;6.90;;
51780;SDS011;37844;57.126;24.288;2022-08-19T05:18:07;17.90;;;6.38;;
51780;SDS011;37844;57.126;24.288;2022-08-19T05:20:50;20.35;;;6.10;;
51780;SDS011;37844;57.126;24.288;2022-08-19T05:23:34;19.23;;;7.85;;
51780;SDS011;37844;57.126;24.288;2022-08-19T05:25:59;22.80;;;6.32;;
51780;SDS011;37844;57.126;24.288;2022-08-19T05:28:25;16.02;;;6.97;;
51780;SDS011;37844;57.126;24.288;2022-08-19T05:30:50;18.70;;;8.30;;
51780;SDS011;37844;57.126;24.288;2022-08-19T05:33:16;21.90;;;6.93;;
51780;SDS011;37844;57.126;24.288;2022-08-19T05:35:41;18.92;;;7.15;;
51780;SDS011;37844;57.126;24.288;2022-08-19T05:38:07;11.88;;;6.35;;
51780;SDS011;37844;57.126;24.288;2022-08-19T05:40:34;15.65;;;5.97;;
51780;SDS011;37844;57.126;24.288;2022-08-19T05:43:01;24.55;;;7.10;;
51780;SDS011;37844;57.126;24.288;2022-08-19T05:45:26;19.55;;;6.03;;
51780;SDS011;37844;57.126;24.288;2022-08-19T05:47:52;12.00;;;6.45;;
51780;SDS011;37844;57.126;24.288;2022-08-19T05:50:18;28.35;;;7.63;;
51780;SDS011;37844;57.126;24.288;2022-08-19T05:52:43;16.27;;;5.93;;
51780;SDS011;37844;57.126;24.288;2022-08-19T05:55:16;22.45;;;6.43;;
51780;SDS011;37844;57.126;24.288;2022-08-19T05:57:45;20.05;;;6.35;;
51780;SDS011;37844;57.126;24.288;2022-08-19T06:00:10;21.95;;;7.32;;
51780;SDS011;37844;57.126;24.288;2022-08-19T06:02:36;22.50;;;8.00;;
51780;SDS011;37844;57.126;24.288;2022-08-19T06:05:02;28.25;;;7.63;;
51780;SDS011;37844;57.126;24.288;2022-08-19T06:07:28;24.63;;;6.57;;
51780;SDS011;37844;57.126;24.288;2022-08-19T06:10:08;11.15;;;5.53;;
51780;SDS011;37844;57.126;24.288;2022-08-19T06:12:34;11.52;;;6.00;;
51780;SDS011;37844;57.126;24.288;2022-08-19T06:15:05;11.75;;;5.43;;
51780;SDS011;37844;57.126;24.288;2022-08-19T06:17:31;13.88;;;5.70;;
51780;SDS011;37844;57.126;24.288;2022-08-19T06:19:56;11.93;;;6.05;;
51780;SDS011;37844;57.126;24.288;2022-08-19T06:22:21;17.80;;;5.40;;
51780;SDS011;37844;57.126;24.288;2022-08-19T06:24:47;27.70;;;6.28;;
51780;SDS011;37844;57.126;24.288;2022-08-19T06:27:12;13.93;;;6.07;;
51780;SDS011;37844;57.126;24.288;2022-08-19T06:29:38;11.25;;;5.20;;
51780;SDS011;37844;57.126;24.288;2022-08-19T06:32:03;15.25;;;5.72;;
51780;SDS011;37844;57.126;24.288;2022-08-19T06:34:30;12.90;;;5.47;;
51780;SDS011;37844;57.126;24.288;2022-08-19T06:36:56;17.70;;;6.82;;
51780;SDS011;37844;57.126;24.288;2022-08-19T06:39:26;13.13;;;5.30;;
51780;SDS011;37844;57.126;24.288;2022-08-19T06:41:53;14.52;;;5.95;;
51780;SDS011;37844;57.126;24.288;2022-08-19T06:44:20;13.18;;;6.15;;
51780;SDS011;37844;57.126;24.288;2022-08-19T06:46:46;12.85;;;4.45;;
51780;SDS011;37844;57.126;24.288;2022-08-19T06:49:11;17.13;;;6.82;;
51780;SDS011;37844;57.126;24.288;2022-08-19T06:51:40;17.02;;;5.57;;
51780;SDS011;37844;57.126;24.288;2022-08-19T06:54:05;18.92;;;5.35;;
51780;SDS011;37844;57.126;24.288;2022-08-19T06:56:31;11.75;;;5.40;;
51780;SDS011;37844;57.126;24.288;2022-08-19T06:58:59;9.10;;;4.35;;
51780;SDS011;37844;57.126;24.288;2022-08-19T07:01:25;14.77;;;5.82;;
51780;SDS011;37844;57.126;24.288;2022-08-19T07:03:50;11.95;;;4.88;;
51780;SDS011;37844;57.126;24.288;2022-08-19T07:06:16;17.55;;;5.03;;
51780;SDS011;37844;57.126;24.288;2022-08-19T07:08:43;21.38;;;5.80;;
51780;SDS011;37844;57.126;24.288;2022-08-19T07:11:10;9.88;;;5.80;;
51780;SDS011;37844;57.126;24.288;2022-08-19T07:13:36;20.98;;;5.78;;
51780;SDS011;37844;57.126;24.288;2022-08-19T07:16:05;9.05;;;5.03;;
51780;SDS011;37844;57.126;24.288;2022-08-19T07:21:06;11.50;;;4.97;;
51780;SDS011;37844;57.126;24.288;2022-08-19T07:23:32;12.55;;;5.25;;
51780;SDS011;37844;57.126;24.288;2022-08-19T07:25:57;13.98;;;4.60;;
51780;SDS011;37844;57.126;24.288;2022-08-19T07:28:23;15.02;;;5.28;;
51780;SDS011;37844;57.126;24.288;2022-08-19T07:30:49;19.90;;;7.05;;
51780;SDS011;37844;57.126;24.288;2022-08-19T07:33:15;17.35;;;6.00;;
51780;SDS011;37844;57.126;24.288;2022-08-19T07:35:41;15.65;;;5.40;;
51780;SDS011;37844;57.126;24.288;2022-08-19T07:38:07;13.63;;;5.22;;
51780;SDS011;37844;57.126;24.288;2022-08-19T07:40:35;12.68;;;5.40;;
51780;SDS011;37844;57.126;24.288;2022-08-19T07:43:01;9.85;;;4.78;;
51780;SDS011;37844;57.126;24.288;2022-08-19T07:45:26;18.63;;;5.57;;
51780;SDS011;37844;57.126;24.288;2022-08-19T07:47:53;19.17;;;4.72;;
51780;SDS011;37844;57.126;24.288;2022-08-19T07:50:20;16.10;;;5.68;;
51780;SDS011;37844;57.126;24.288;2022-08-19T07:52:45;14.57;;;5.20;;
51780;SDS011;37844;57.126;24.288;2022-08-19T07:55:11;15.77;;;4.90;;
51780;SDS011;37844;57.126;24.288;2022-08-19T07:57:37;12.38;;;5.70;;
51780;SDS011;37844;57.126;24.288;2022-08-19T08:00:04;12.15;;;5.40;;
51780;SDS011;37844;57.126;24.288;2022-08-19T08:02:30;14.73;;;5.32;;
51780;SDS011;37844;57.126;24.288;2022-08-19T08:04:56;9.27;;;4.80;;
51780;SDS011;37844;57.126;24.288;2022-08-19T08:07:39;17.33;;;5.05;;
51780;SDS011;37844;57.126;24.288;2022-08-19T08:10:40;12.98;;;4.57;;
51780;SDS011;37844;57.126;24.288;2022-08-19T08:13:06;13.57;;;4.13;;
51780;SDS011;37844;57.126;24.288;2022-08-19T08:15:31;11.40;;;5.00;;
51780;SDS011;37844;57.126;24.288;2022-08-19T08:17:56;19.48;;;5.28;;
51780;SDS011;37844;57.126;24.288;2022-08-19T08:20:23;14.10;;;4.15;;
51780;SDS011;37844;57.126;24.288;2022-08-19T08:22:48;11.20;;;3.78;;
51780;SDS011;37844;57.126;24.288;2022-08-19T08:25:32;18.00;;;5.00;;
51780;SDS011;37844;57.126;24.288;2022-08-19T08:27:58;7.93;;;3.45;;
51780;SDS011;37844;57.126;24.288;2022-08-19T08:30:25;18.20;;;3.53;;
51780;SDS011;37844;57.126;24.288;2022-08-19T08:32:52;13.73;;;4.53;;
51780;SDS011;37844;57.126;24.288;2022-08-19T08:35:18;11.30;;;3.53;;
51780;SDS011;37844;57.126;24.288;2022-08-19T08:37:44;26.77;;;4.60;;
51780;SDS011;37844;57.126;24.288;2022-08-19T08:43:06;13.45;;;3.40;;
51780;SDS011;37844;57.126;24.288;2022-08-19T08:45:37;12.77;;;3.90;;
51780;SDS011;37844;57.126;24.288;2022-08-19T08:50:44;12.55;;;4.28;;
51780;SDS011;37844;57.126;24.288;2022-08-19T08:53:10;10.10;;;4.43;;
51780;SDS011;37844;57.126;24.288;2022-08-19T08:55:40;13.85;;;4.70;;
51780;SDS011;37844;57.126;24.288;2022-08-19T08:58:09;12.05;;;4.13;;
51780;SDS011;37844;57.126;24.288;2022-08-19T09:00:40;23.65;;;4.30;;
51780;SDS011;37844;57.126;24.288;2022-08-19T09:03:38;8.55;;;4.20;;
51780;SDS011;37844;57.126;24.288;2022-08-19T09:06:04;25.40;;;3.85;;
51780;SDS011;37844;57.126;24.288;2022-08-19T09:11:00;11.07;;;4.80;;
51780;SDS011;37844;57.126;24.288;2022-08-19T09:16:12;26.30;;;4.25;;
51780;SDS011;37844;57.126;24.288;2022-08-19T09:18:43;13.30;;;3.60;;
51780;SDS011;37844;57.126;24.288;2022-08-19T09:21:09;16.48;;;3.05;;
51780;SDS011;37844;57.126;24.288;2022-08-19T09:23:35;15.77;;;3.90;;
51780;SDS011;37844;57.126;24.288;2022-08-19T09:26:01;8.63;;;3.10;;
51780;SDS011;37844;57.126;24.288;2022-08-19T09:28:27;13.43;;;3.83;;
51780;SDS011;37844;57.126;24.288;2022-08-19T09:30:54;13.32;;;3.92;;
51780;SDS011;37844;57.126;24.288;2022-08-19T09:33:19;12.25;;;3.78;;
51780;SDS011;37844;57.126;24.288;2022-08-19T09:35:45;17.63;;;3.58;;
51780;SDS011;37844;57.126;24.288;2022-08-19T09:38:11;8.48;;;3.42;;
51780;SDS011;37844;57.126;24.288;2022-08-19T09:40:36;16.55;;;3.58;;
51780;SDS011;37844;57.126;24.288;2022-08-19T09:43:01;14.05;;;3.58;;
51780;SDS011;37844;57.126;24.288;2022-08-19T09:45:27;13.27;;;4.53;;
51780;SDS011;37844;57.126;24.288;2022-08-19T09:47:53;8.90;;;3.97;;
51780;SDS011;37844;57.126;24.288;2022-08-19T09:50:19;10.90;;;3.97;;
51780;SDS011;37844;57.126;24.288;2022-08-19T09:52:45;10.57;;;3.83;;
51780;SDS011;37844;57.126;24.288;2022-08-19T09:55:11;21.05;;;3.30;;
51780;SDS011;37844;57.126;24.288;2022-08-19T09:57:36;13.90;;;3.30;;
51780;SDS011;37844;57.126;24.288;2022-08-19T10:00:05;13.10;;;3.75;;
51780;SDS011;37844;57.126;24.288;2022-08-19T10:02:32;8.18;;;2.70;;
51780;SDS011;37844;57.126;24.288;2022-08-19T10:04:57;9.30;;;3.85;;
51780;SDS011;37844;57.126;24.288;2022-08-19T10:07:41;25.48;;;5.70;;
51780;SDS011;37844;57.126;24.288;2022-08-19T10:10:06;13.23;;;3.88;;
51780;SDS011;37844;57.126;24.288;2022-08-19T10:12:32;16.52;;;3.95;;
51780;SDS011;37844;57.126;24.288;2022-08-19T10:14:58;9.48;;;4.05;;
51780;SDS011;37844;57.126;24.288;2022-08-19T10:17:24;9.30;;;3.38;;
51780;SDS011;37844;57.126;24.288;2022-08-19T10:19:50;8.60;;;3.42;;
51780;SDS011;37844;57.126;24.288;2022-08-19T10:22:17;6.95;;;3.10;;
51780;SDS011;37844;57.126;24.288;2022-08-19T10:24:42;15.98;;;3.85;;
51780;SDS011;37844;57.126;24.288;2022-08-19T10:27:07;19.63;;;4.03;;
51780;SDS011;37844;57.126;24.288;2022-08-19T10:29:34;15.43;;;3.85;;
51780;SDS011;37844;57.126;24.288;2022-08-19T10:32:00;14.98;;;3.72;;
51780;SDS011;37844;57.126;24.288;2022-08-19T10:34:26;14.10;;;4.25;;
51780;SDS011;37844;57.126;24.288;2022-08-19T10:36:52;16.35;;;4.82;;
51780;SDS011;37844;57.126;24.288;2022-08-19T10:39:17;20.08;;;4.05;;
51780;SDS011;37844;57.126;24.288;2022-08-19T10:41:43;14.70;;;4.07;;
51780;SDS011;37844;57.126;24.288;2022-08-19T10:44:10;17.50;;;5.43;;
51780;SDS011;37844;57.126;24.288;2022-08-19T10:46:38;14.27;;;3.60;;
51780;SDS011;37844;57.126;24.288;2022-08-19T10:49:05;14.10;;;4.07;;
51780;SDS011;37844;57.126;24.288;2022-08-19T10:51:31;12.25;;;3.95;;
51780;SDS011;37844;57.126;24.288;2022-08-19T10:54:16;16.02;;;4.43;;
51780;SDS011;37844;57.126;24.288;2022-08-19T10:56:42;10.10;;;4.05;;
51780;SDS011;37844;57.126;24.288;2022-08-19T10:59:17;12.73;;;4.13;;
51780;SDS011;37844;57.126;24.288;2022-08-19T11:01:44;14.40;;;4.72;;
51780;SDS011;37844;57.126;24.288;2022-08-19T11:04:10;15.85;;;4.65;;
51780;SDS011;37844;57.126;24.288;2022-08-19T11:06:36;21.15;;;4.22;;
51780;SDS011;37844;57.126;24.288;2022-08-19T11:09:03;13.50;;;4.75;;
51780;SDS011;37844;57.126;24.288;2022-08-19T11:11:29;8.90;;;4.45;;
51780;SDS011;37844;57.126;24.288;2022-08-19T11:13:55;16.38;;;5.82;;
51780;SDS011;37844;57.126;24.288;2022-08-19T11:16:21;20.08;;;4.78;;
51780;SDS011;37844;57.126;24.288;2022-08-19T11:18:50;29.98;;;5.60;;
51780;SDS011;37844;57.126;24.288;2022-08-19T11:21:17;12.40;;;4.38;;
51780;SDS011;37844;57.126;24.288;2022-08-19T11:23:44;12.10;;;4.23;;
51780;SDS011;37844;57.126;24.288;2022-08-19T11:26:10;16.98;;;5.28;;
51780;SDS011;37844;57.126;24.288;2022-08-19T11:28:35;13.90;;;4.97;;
51780;SDS011;37844;57.126;24.288;2022-08-19T11:31:01;15.20;;;4.50;;
51780;SDS011;37844;57.126;24.288;2022-08-19T11:33:28;14.73;;;4.80;;
51780;SDS011;37844;57.126;24.288;2022-08-19T11:35:54;13.65;;;4.05;;
51780;SDS011;37844;57.126;24.288;2022-08-19T11:38:19;10.77;;;3.88;;
51780;SDS011;37844;57.126;24.288;2022-08-19T11:40:44;11.55;;;4.40;;
51780;SDS011;37844;57.126;24.288;2022-08-19T11:43:10;12.35;;;3.97;;
51780;SDS011;37844;57.126;24.288;2022-08-19T11:45:35;10.90;;;3.40;;
51780;SDS011;37844;57.126;24.288;2022-08-19T11:48:01;14.02;;;4.78;;
51780;SDS011;37844;57.126;24.288;2022-08-19T11:50:27;18.85;;;6.35;;
51780;SDS011;37844;57.126;24.288;2022-08-19T11:52:53;23.88;;;5.20;;
51780;SDS011;37844;57.126;24.288;2022-08-19T11:55:19;14.95;;;4.95;;
51780;SDS011;37844;57.126;24.288;2022-08-19T11:57:44;17.63;;;4.93;;
51780;SDS011;37844;57.126;24.288;2022-08-19T12:00:11;11.02;;;4.57;;
51780;SDS011;37844;57.126;24.288;2022-08-19T12:02:38;17.42;;;5.57;;
51780;SDS011;37844;57.126;24.288;2022-08-19T12:05:03;11.75;;;5.05;;
51780;SDS011;37844;57.126;24.288;2022-08-19T12:07:29;18.17;;;4.70;;
51780;SDS011;37844;57.126;24.288;2022-08-19T12:12:23;13.15;;;5.25;;
51780;SDS011;37844;57.126;24.288;2022-08-19T12:14:49;18.98;;;5.55;;
51780;SDS011;37844;57.126;24.288;2022-08-19T12:17:22;14.15;;;4.70;;
51780;SDS011;37844;57.126;24.288;2022-08-19T12:19:47;12.13;;;4.70;;
51780;SDS011;37844;57.126;24.288;2022-08-19T12:22:12;13.10;;;4.35;;
51780;SDS011;37844;57.126;24.288;2022-08-19T12:24:38;10.07;;;5.07;;
51780;SDS011;37844;57.126;24.288;2022-08-19T12:27:03;15.93;;;5.10;;
51780;SDS011;37844;57.126;24.288;2022-08-19T12:29:29;10.98;;;5.30;;
51780;SDS011;37844;57.126;24.288;2022-08-19T12:31:55;14.27;;;5.50;;
51780;SDS011;37844;57.126;24.288;2022-08-19T12:34:27;13.82;;;4.63;;
51780;SDS011;37844;57.126;24.288;2022-08-19T12:36:55;9.85;;;4.28;;
51780;SDS011;37844;57.126;24.288;2022-08-19T12:39:21;10.25;;;4.65;;
51780;SDS011;37844;57.126;24.288;2022-08-19T12:41:46;18.08;;;4.75;;
51780;SDS011;37844;57.126;24.288;2022-08-19T12:44:14;12.60;;;3.78;;
51780;SDS011;37844;57.126;24.288;2022-08-19T12:46:39;23.90;;;3.97;;
51780;SDS011;37844;57.126;24.288;2022-08-19T12:49:05;30.50;;;4.00;;
51780;SDS011;37844;57.126;24.288;2022-08-19T12:51:30;12.20;;;4.00;;
51780;SDS011;37844;57.126;24.288;2022-08-19T12:53:56;9.50;;;3.40;;
51780;SDS011;37844;57.126;24.288;2022-08-19T12:56:21;12.18;;;4.38;;
51780;SDS011;37844;57.126;24.288;2022-08-19T12:58:47;12.48;;;3.70;;
51780;SDS011;37844;57.126;24.288;2022-08-19T13:01:14;16.08;;;3.75;;
51780;SDS011;37844;57.126;24.288;2022-08-19T13:03:41;6.10;;;3.33;;
51780;SDS011;37844;57.126;24.288;2022-08-19T13:06:06;9.88;;;3.67;;
51780;SDS011;37844;57.126;24.288;2022-08-19T13:08:31;13.45;;;3.90;;
51780;SDS011;37844;57.126;24.288;2022-08-19T13:10:57;12.90;;;4.32;;
51780;SDS011;37844;57.126;24.288;2022-08-19T13:13:29;18.90;;;4.32;;
51780;SDS011;37844;57.126;24.288;2022-08-19T13:15:59;20.52;;;4.07;;
51780;SDS011;37844;57.126;24.288;2022-08-19T13:18:32;16.13;;;3.78;;
51780;SDS011;37844;57.126;24.288;2022-08-19T13:21:01;24.02;;;4.10;;
51780;SDS011;37844;57.126;24.288;2022-08-19T13:23:28;10.65;;;4.43;;
51780;SDS011;37844;57.126;24.288;2022-08-19T13:25:57;8.20;;;3.72;;
51780;SDS011;37844;57.126;24.288;2022-08-19T13:28:23;7.05;;;3.75;;
51780;SDS011;37844;57.126;24.288;2022-08-19T13:30:48;13.43;;;4.22;;
51780;SDS011;37844;57.126;24.288;2022-08-19T13:33:32;12.27;;;4.07;;
51780;SDS011;37844;57.126;24.288;2022-08-19T13:35:58;10.68;;;4.85;;
51780;SDS011;37844;57.126;24.288;2022-08-19T13:38:25;13.07;;;5.13;;
51780;SDS011;37844;57.126;24.288;2022-08-19T13:40:51;17.75;;;4.03;;
51780;SDS011;37844;57.126;24.288;2022-08-19T13:43:17;14.70;;;4.35;;
51780;SDS011;37844;57.126;24.288;2022-08-19T13:45:43;22.05;;;4.70;;
51780;SDS011;37844;57.126;24.288;2022-08-19T13:48:09;15.10;;;5.03;;
51780;SDS011;37844;57.126;24.288;2022-08-19T13:50:38;19.85;;;5.72;;
51780;SDS011;37844;57.126;24.288;2022-08-19T13:53:03;9.57;;;4.50;;
51780;SDS011;37844;57.126;24.288;2022-08-19T13:55:29;26.00;;;4.70;;
51780;SDS011;37844;57.126;24.288;2022-08-19T13:57:56;16.00;;;5.35;;
51780;SDS011;37844;57.126;24.288;2022-08-19T14:00:22;13.98;;;4.70;;
51780;SDS011;37844;57.126;24.288;2022-08-19T14:02:50;12.77;;;5.30;;
51780;SDS011;37844;57.126;24.288;2022-08-19T14:05:16;21.83;;;4.90;;
51780;SDS011;37844;57.126;24.288;2022-08-19T14:07:41;16.05;;;4.88;;
51780;SDS011;37844;57.126;24.288;2022-08-19T14:10:08;26.48;;;4.60;;
51780;SDS011;37844;57.126;24.288;2022-08-19T14:12:35;14.52;;;5.25;;
51780;SDS011;37844;57.126;24.288;2022-08-19T14:15:01;16.20;;;4.38;;
51780;SDS011;37844;57.126;24.288;2022-08-19T14:17:27;9.18;;;4.78;;
51780;SDS011;37844;57.126;24.288;2022-08-19T14:20:00;12.15;;;4.78;;
51780;SDS011;37844;57.126;24.288;2022-08-19T14:22:31;15.63;;;5.28;;
51780;SDS011;37844;57.126;24.288;2022-08-19T14:24:57;11.85;;;5.05;;
51780;SDS011;37844;57.126;24.288;2022-08-19T14:27:23;13.48;;;4.70;;
51780;SDS011;37844;57.126;24.288;2022-08-19T14:29:49;15.68;;;5.03;;
51780;SDS011;37844;57.126;24.288;2022-08-19T14:32:15;14.50;;;4.70;;
51780;SDS011;37844;57.126;24.288;2022-08-19T14:34:41;13.38;;;4.88;;
51780;SDS011;37844;57.126;24.288;2022-08-19T14:37:06;7.82;;;4.03;;
51780;SDS011;37844;57.126;24.288;2022-08-19T14:39:33;10.93;;;4.78;;
51780;SDS011;37844;57.126;24.288;2022-08-19T14:41:58;15.20;;;5.10;;